createdAt,value
2023-06-10T00:02:54.307Z,19.50
2023-06-10T00:07:56.413Z,19.60
2023-06-10T00:12:58.534Z,19.30
2023-06-10T00:18:00.613Z,19.10
2023-06-10T00:23:02.587Z,19.30
2023-06-10T00:28:04.540Z,19.30
2023-06-10T00:33:06.566Z,19.20
2023-06-10T00:38:10.366Z,18.80
2023-06-10T00:43:12.312Z,18.80
2023-06-10T00:48:14.758Z,18.80
2023-06-10T00:53:16.923Z,18.90
2023-06-10T00:58:19.345Z,18.90
2023-06-10T01:03:21.355Z,18.90
2023-06-10T01:08:58.353Z,19.00
2023-06-10T01:14:01.730Z,19.00
2023-06-10T01:19:04.588Z,18.80
2023-06-10T01:24:09.252Z,18.70
2023-06-10T01:29:18.822Z,18.80
2023-06-10T01:34:24.465Z,18.80
2023-06-10T01:39:27.266Z,18.80
2023-06-10T01:44:29.057Z,18.60
2023-06-10T01:49:31.029Z,18.50
2023-06-10T01:54:33.059Z,18.50
2023-06-10T01:59:34.886Z,18.50
2023-06-10T02:04:36.675Z,18.40
2023-06-10T02:09:38.513Z,18.40
2023-06-10T02:14:40.500Z,18.50
2023-06-10T02:19:43.885Z,18.40
2023-06-10T02:24:45.774Z,18.40
2023-06-10T02:29:47.546Z,18.40
2023-06-10T02:34:52.335Z,18.10
2023-06-10T02:39:55.520Z,18.00
2023-06-10T02:44:58.089Z,17.90
2023-06-10T02:50:10.183Z,17.90
2023-06-10T02:55:20.650Z,17.90
2023-06-10T03:00:28.110Z,17.80
2023-06-10T03:05:33.380Z,17.80
2023-06-10T03:10:38.644Z,17.90
2023-06-10T03:15:41.917Z,18.00
2023-06-10T03:20:47.452Z,18.00
2023-06-10T03:25:49.992Z,17.90
2023-06-10T03:30:54.452Z,17.90
2023-06-10T03:35:58.879Z,17.90
2023-06-10T03:41:01.451Z,18.00
2023-06-10T03:46:03.764Z,18.20
2023-06-10T03:51:06.594Z,18.60
2023-06-10T03:56:09.076Z,19.40
2023-06-10T04:01:11.696Z,20.10
2023-06-10T04:06:14.002Z,20.90
2023-06-10T04:11:16.158Z,21.20
2023-06-10T04:16:18.406Z,22.10
2023-06-10T04:21:23.160Z,22.80
2023-06-10T04:26:26.822Z,23.90
2023-06-10T04:31:29.315Z,24.60
2023-06-10T04:36:31.277Z,25.10
2023-06-10T04:41:33.167Z,26.30
2023-06-10T04:46:35.063Z,27.50
2023-06-10T04:51:37.077Z,28.50
2023-06-10T04:56:40.397Z,28.90
2023-06-10T05:01:42.269Z,29.90
2023-06-10T05:06:44.064Z,30.10
2023-06-10T05:11:45.989Z,29.70
2023-06-10T05:16:49.054Z,29.10
2023-06-10T05:21:50.952Z,28.60
2023-06-10T05:26:52.817Z,28.20
2023-06-10T05:31:54.877Z,28.90
2023-06-10T05:36:56.766Z,29.60
2023-06-10T05:42:00.477Z,29.40
2023-06-10T05:47:02.433Z,29.30
2023-06-10T05:52:04.662Z,29.20
2023-06-10T05:57:06.990Z,29.00
2023-06-10T06:02:09.047Z,29.00
2023-06-10T06:07:11.005Z,29.10
2023-06-10T06:12:12.830Z,29.10
2023-06-10T06:17:14.703Z,29.30
2023-06-10T06:22:20.959Z,29.10
2023-06-10T06:27:22.755Z,29.00
2023-06-10T06:32:27.309Z,29.50
2023-06-10T06:37:29.134Z,29.70
2023-06-10T06:42:45.932Z,29.80
2023-06-10T06:47:55.022Z,29.80
2023-06-10T06:52:57.016Z,30.40
2023-06-10T06:57:59.639Z,30.70
2023-06-10T07:03:01.504Z,31.10
2023-06-10T07:08:03.498Z,30.60
2023-06-10T07:13:05.326Z,30.60
2023-06-10T07:18:07.312Z,30.40
2023-06-10T07:23:09.216Z,30.60
2023-06-10T07:28:11.166Z,30.80
2023-06-10T07:33:13.079Z,31.70
2023-06-10T07:38:14.949Z,31.50
2023-06-10T07:43:16.811Z,31.60
2023-06-10T07:48:18.883Z,31.60
2023-06-10T07:53:20.757Z,32.00
2023-06-10T07:58:23.272Z,32.40
2023-06-10T08:03:25.230Z,32.30
2023-06-10T08:08:27.058Z,32.70
2023-06-10T08:13:28.891Z,32.60
2023-06-10T08:18:30.688Z,32.80
2023-06-10T08:23:32.578Z,32.80
2023-06-10T08:28:34.376Z,32.80
2023-06-10T08:33:36.152Z,33.30
2023-06-10T08:38:38.338Z,33.00
2023-06-10T08:43:45.343Z,33.10
2023-06-10T08:48:52.407Z,32.80
2023-06-10T08:54:09.235Z,33.70
2023-06-10T08:59:12.316Z,33.20
2023-06-10T09:04:14.717Z,34.00
2023-06-10T09:09:16.827Z,34.10
2023-06-10T09:14:18.772Z,33.20
2023-06-10T09:19:22.284Z,33.40
2023-06-10T09:24:24.977Z,33.70
2023-06-10T09:29:26.784Z,33.10
2023-06-10T09:34:29.874Z,33.90
2023-06-10T09:39:31.755Z,34.00
2023-06-10T09:44:33.531Z,34.00
2023-06-10T09:49:38.937Z,34.20
2023-06-10T09:54:40.860Z,34.20
2023-06-10T09:59:43.610Z,34.40
2023-06-10T10:04:45.775Z,34.70
2023-06-10T10:09:47.675Z,34.70
2023-06-10T10:14:51.299Z,34.60
2023-06-10T10:20:03.324Z,33.90
2023-06-10T10:25:11.139Z,34.30
2023-06-10T10:30:15.926Z,34.80
2023-06-10T10:35:24.322Z,34.90
2023-06-10T10:40:30.331Z,34.60
2023-06-10T10:45:34.489Z,35.50
2023-06-10T10:50:36.411Z,35.90
2023-06-10T10:55:38.350Z,35.80
2023-06-10T11:00:46.238Z,35.50
2023-06-10T11:05:50.093Z,35.50
2023-06-10T11:10:53.930Z,34.60
2023-06-10T11:15:59.345Z,35.40
2023-06-10T11:21:08.739Z,35.70
2023-06-10T11:26:32.638Z,35.10
2023-06-10T11:31:39.817Z,34.60
2023-06-10T11:36:46.164Z,34.80
2023-06-10T11:41:48.855Z,35.00
2023-06-10T11:46:51.269Z,35.80
2023-06-10T11:51:53.122Z,35.00
2023-06-10T11:57:00.528Z,36.30
2023-06-10T12:02:02.635Z,35.60
2023-06-10T12:07:04.789Z,35.40
2023-06-10T12:12:07.956Z,36.30
2023-06-10T12:17:09.904Z,36.10
2023-06-10T12:22:11.798Z,36.50
2023-06-10T12:27:14.209Z,36.30
2023-06-10T12:32:16.384Z,36.30
2023-06-10T12:37:18.362Z,35.40
2023-06-10T12:42:25.893Z,34.10
2023-06-10T12:47:39.914Z,34.00
2023-06-10T12:52:42.242Z,34.90
2023-06-10T12:57:51.297Z,34.80
2023-06-10T13:02:56.650Z,33.90
2023-06-10T13:07:59.136Z,34.20
2023-06-10T13:13:01.532Z,35.00
2023-06-10T13:18:04.972Z,35.40
2023-06-10T13:23:06.943Z,35.10
2023-06-10T13:28:08.857Z,35.60
2023-06-10T13:33:10.895Z,35.30
2023-06-10T13:38:13.573Z,34.60
2023-06-10T13:43:16.656Z,34.80
2023-06-10T13:48:19.144Z,34.40
2023-06-10T13:53:21.340Z,34.90
2023-06-10T13:58:23.140Z,34.80
2023-06-10T14:03:25.221Z,33.40
2023-06-10T14:08:27.101Z,31.80
2023-06-10T14:13:29.300Z,31.10
2023-06-10T14:18:31.182Z,30.50
2023-06-10T14:23:33.031Z,30.60
2023-06-10T14:28:34.805Z,30.60
2023-06-10T14:33:36.657Z,31.20
2023-06-10T14:38:38.549Z,31.70
2023-06-10T14:43:40.325Z,32.10
2023-06-10T14:48:42.298Z,32.60
2023-06-10T14:53:44.070Z,32.90
2023-06-10T14:58:45.843Z,32.40
2023-06-10T15:03:47.669Z,31.70
2023-06-10T15:08:49.779Z,31.20
2023-06-10T15:13:51.536Z,31.80
2023-06-10T15:18:53.385Z,31.90
2023-06-10T15:23:55.190Z,31.80
2023-06-10T15:28:57.034Z,32.10
2023-06-10T15:34:00.142Z,32.00
2023-06-10T15:39:04.415Z,32.10
2023-06-10T15:44:06.408Z,32.60
2023-06-10T15:49:08.277Z,32.60
2023-06-10T15:54:10.237Z,32.70
2023-06-10T15:59:12.925Z,32.30
2023-06-10T16:04:14.743Z,32.30
2023-06-10T16:09:17.589Z,31.80
2023-06-10T16:14:19.526Z,31.80
2023-06-10T16:19:21.374Z,31.60
2023-06-10T16:24:23.194Z,31.60
2023-06-10T16:29:27.300Z,30.80
2023-06-10T16:34:29.059Z,30.60
2023-06-10T16:39:30.825Z,30.10
2023-06-10T16:44:32.600Z,29.80
2023-06-10T16:49:35.271Z,30.20
2023-06-10T16:54:37.074Z,30.00
2023-06-10T16:59:38.956Z,29.70
2023-06-10T17:04:40.807Z,29.90
2023-06-10T17:09:42.568Z,30.00
2023-06-10T17:14:44.363Z,30.20
2023-06-10T17:19:47.956Z,30.10
2023-06-10T17:24:52.048Z,30.00
2023-06-10T17:29:54.413Z,30.30
2023-06-10T17:34:56.212Z,29.90
2023-06-10T17:39:57.972Z,29.70
2023-06-10T17:44:59.777Z,30.10
2023-06-10T17:50:01.606Z,29.50
2023-06-10T17:55:03.925Z,29.40
2023-06-10T18:00:07.324Z,29.30
2023-06-10T18:05:10.027Z,29.20
2023-06-10T18:10:12.600Z,29.00
2023-06-10T18:15:14.478Z,28.70
2023-06-10T18:20:16.356Z,28.90
2023-06-10T18:25:18.242Z,28.70
2023-06-10T18:30:20.588Z,28.60
2023-06-10T18:35:22.508Z,28.30
2023-06-10T18:40:24.439Z,28.00
2023-06-10T18:45:26.540Z,27.70
2023-06-10T18:50:28.584Z,27.80
2023-06-10T18:55:33.394Z,27.60
2023-06-10T19:00:35.501Z,27.30
2023-06-10T19:05:37.287Z,27.10
2023-06-10T19:10:39.096Z,26.90
2023-06-10T19:15:41.218Z,26.70
2023-06-10T19:20:43.848Z,26.60
2023-06-10T19:25:45.691Z,26.60
2023-06-10T19:30:47.498Z,26.30
2023-06-10T19:35:49.305Z,26.20
2023-06-10T19:40:51.147Z,26.20
2023-06-10T19:45:52.922Z,26.00
2023-06-10T19:50:54.768Z,25.90
2023-06-10T19:55:56.541Z,25.90
2023-06-10T20:00:58.317Z,25.70
2023-06-10T20:06:01.417Z,25.70
2023-06-10T20:11:03.512Z,25.60
2023-06-10T20:16:06.035Z,25.50
2023-06-10T20:21:07.883Z,25.30
2023-06-10T20:26:09.843Z,25.00
2023-06-10T20:31:12.543Z,25.10
2023-06-10T20:36:16.499Z,25.10
2023-06-10T20:41:18.899Z,25.00
2023-06-10T20:46:20.895Z,25.10
2023-06-10T20:51:23.222Z,25.30
2023-06-10T20:56:24.992Z,25.40
2023-06-10T21:01:27.033Z,25.30
2023-06-10T21:06:28.907Z,25.50
2023-06-10T21:11:30.760Z,25.50
2023-06-10T21:16:34.884Z,25.70
2023-06-10T21:21:37.272Z,25.50
2023-06-10T21:26:39.354Z,25.40
2023-06-10T21:31:41.810Z,25.50
2023-06-10T21:36:43.837Z,25.70
2023-06-10T21:41:45.947Z,25.10
2023-06-10T21:46:47.774Z,25.00
2023-06-10T21:51:49.618Z,24.90
2023-06-10T21:56:51.423Z,24.70
2023-06-10T22:01:53.194Z,24.60
2023-06-10T22:06:55.066Z,24.50
2023-06-10T22:11:57.194Z,24.40
2023-06-10T22:16:59.181Z,24.20
2023-06-10T22:22:01.032Z,24.00
2023-06-10T22:27:03.606Z,23.70
2023-06-10T22:32:05.961Z,23.60
2023-06-10T22:37:08.076Z,23.40
2023-06-10T22:42:10.629Z,23.40
2023-06-10T22:47:12.785Z,23.30
2023-06-10T22:52:14.610Z,23.20
2023-06-10T22:57:16.626Z,23.00
2023-06-10T23:02:18.501Z,23.00
2023-06-10T23:07:21.584Z,23.10
2023-06-10T23:12:23.565Z,22.70
2023-06-10T23:17:29.130Z,22.60
2023-06-10T23:22:34.002Z,22.60
2023-06-10T23:27:36.143Z,22.50
2023-06-10T23:32:38.368Z,22.40
2023-06-10T23:37:40.435Z,22.30
2023-06-10T23:42:42.260Z,22.10
2023-06-10T23:47:44.152Z,22.00
2023-06-10T23:52:46.460Z,21.90
2023-06-10T23:57:48.210Z,21.80
